sensor_id;sensor_type;location;lat;lon;timestamp;P1;durP1;ratioP1;P2;durP2;ratioP2
37091;SDS011;23005;51.998;4.502;2022-10-31T00:00:00;10.02;;;3.10;;
37091;SDS011;23005;51.998;4.502;2022-10-31T00:01:51;6.88;;;2.78;;
37091;SDS011;23005;51.998;4.502;2022-10-31T00:03:42;11.50;;;2.53;;
37091;SDS011;23005;51.998;4.502;2022-10-31T00:05:32;7.53;;;2.72;;
37091;SDS011;23005;51.998;4.502;2022-10-31T00:07:22;10.25;;;2.65;;
37091;SDS011;23005;51.998;4.502;2022-10-31T00:09:13;3.97;;;2.63;;
37091;SDS011;23005;51.998;4.502;2022-10-31T00:11:07;7.40;;;2.75;;
37091;SDS011;23005;51.998;4.502;2022-10-31T00:12:58;4.30;;;2.63;;
37091;SDS011;23005;51.998;4.502;2022-10-31T00:14:49;6.80;;;2.53;;
37091;SDS011;23005;51.998;4.502;2022-10-31T00:16:39;6.38;;;2.70;;
37091;SDS011;23005;51.998;4.502;2022-10-31T00:18:30;8.30;;;2.80;;
37091;SDS011;23005;51.998;4.502;2022-10-31T00:20:21;9.20;;;2.65;;
37091;SDS011;23005;51.998;4.502;2022-10-31T00:22:11;7.13;;;2.70;;
37091;SDS011;23005;51.998;4.502;2022-10-31T00:24:01;13.20;;;2.90;;
37091;SDS011;23005;51.998;4.502;2022-10-31T00:25:52;7.93;;;2.67;;
37091;SDS011;23005;51.998;4.502;2022-10-31T00:27:45;7.80;;;2.97;;
37091;SDS011;23005;51.998;4.502;2022-10-31T00:29:36;9.70;;;3.00;;
37091;SDS011;23005;51.998;4.502;2022-10-31T00:31:26;6.85;;;2.90;;
37091;SDS011;23005;51.998;4.502;2022-10-31T00:33:17;8.35;;;3.10;;
37091;SDS011;23005;51.998;4.502;2022-10-31T00:35:07;7.93;;;2.63;;
37091;SDS011;23005;51.998;4.502;2022-10-31T00:36:58;9.25;;;2.83;;
37091;SDS011;23005;51.998;4.502;2022-10-31T00:38:48;9.95;;;3.22;;
37091;SDS011;23005;51.998;4.502;2022-10-31T00:40:39;9.30;;;3.05;;
37091;SDS011;23005;51.998;4.502;2022-10-31T00:42:29;5.88;;;2.72;;
37091;SDS011;23005;51.998;4.502;2022-10-31T00:44:21;5.03;;;2.83;;
37091;SDS011;23005;51.998;4.502;2022-10-31T00:46:12;7.35;;;3.10;;
37091;SDS011;23005;51.998;4.502;2022-10-31T00:48:02;8.50;;;3.13;;
37091;SDS011;23005;51.998;4.502;2022-10-31T00:49:53;10.73;;;3.20;;
37091;SDS011;23005;51.998;4.502;2022-10-31T00:51:44;7.95;;;3.10;;
37091;SDS011;23005;51.998;4.502;2022-10-31T00:53:34;8.25;;;3.70;;
37091;SDS011;23005;51.998;4.502;2022-10-31T00:55:25;8.77;;;3.58;;
37091;SDS011;23005;51.998;4.502;2022-10-31T00:57:15;6.03;;;3.22;;
37091;SDS011;23005;51.998;4.502;2022-10-31T00:59:06;7.47;;;3.67;;
37091;SDS011;23005;51.998;4.502;2022-10-31T01:00:58;7.47;;;3.47;;
37091;SDS011;23005;51.998;4.502;2022-10-31T01:02:49;7.28;;;3.40;;
37091;SDS011;23005;51.998;4.502;2022-10-31T01:04:39;7.60;;;3.45;;
37091;SDS011;23005;51.998;4.502;2022-10-31T01:06:29;7.32;;;3.20;;
37091;SDS011;23005;51.998;4.502;2022-10-31T01:08:20;6.53;;;3.70;;
37091;SDS011;23005;51.998;4.502;2022-10-31T01:10:11;7.97;;;3.85;;
37091;SDS011;23005;51.998;4.502;2022-10-31T01:12:01;9.45;;;3.78;;
37091;SDS011;23005;51.998;4.502;2022-10-31T01:13:53;8.70;;;4.13;;
37091;SDS011;23005;51.998;4.502;2022-10-31T01:15:44;10.90;;;3.92;;
37091;SDS011;23005;51.998;4.502;2022-10-31T01:17:36;9.50;;;4.10;;
37091;SDS011;23005;51.998;4.502;2022-10-31T01:19:27;8.07;;;4.07;;
37091;SDS011;23005;51.998;4.502;2022-10-31T01:21:18;7.65;;;4.75;;
37091;SDS011;23005;51.998;4.502;2022-10-31T01:23:10;11.18;;;4.60;;
37091;SDS011;23005;51.998;4.502;2022-10-31T01:25:00;12.00;;;4.20;;
37091;SDS011;23005;51.998;4.502;2022-10-31T01:26:50;9.48;;;4.45;;
37091;SDS011;23005;51.998;4.502;2022-10-31T01:28:43;12.65;;;4.30;;
37091;SDS011;23005;51.998;4.502;2022-10-31T01:30:35;10.20;;;4.60;;
37091;SDS011;23005;51.998;4.502;2022-10-31T01:32:26;10.75;;;4.50;;
37091;SDS011;23005;51.998;4.502;2022-10-31T01:34:18;10.50;;;4.90;;
37091;SDS011;23005;51.998;4.502;2022-10-31T01:36:12;9.88;;;4.63;;
37091;SDS011;23005;51.998;4.502;2022-10-31T01:38:04;11.98;;;4.80;;
37091;SDS011;23005;51.998;4.502;2022-10-31T01:39:55;9.73;;;4.95;;
37091;SDS011;23005;51.998;4.502;2022-10-31T01:41:47;10.25;;;4.75;;
37091;SDS011;23005;51.998;4.502;2022-10-31T01:43:46;11.48;;;5.05;;
37091;SDS011;23005;51.998;4.502;2022-10-31T01:45:39;11.10;;;4.95;;
37091;SDS011;23005;51.998;4.502;2022-10-31T01:47:34;10.07;;;4.65;;
37091;SDS011;23005;51.998;4.502;2022-10-31T01:49:30;8.30;;;4.85;;
37091;SDS011;23005;51.998;4.502;2022-10-31T01:51:24;7.43;;;5.00;;
37091;SDS011;23005;51.998;4.502;2022-10-31T01:53:17;12.88;;;5.57;;
37091;SDS011;23005;51.998;4.502;2022-10-31T01:55:16;12.10;;;5.38;;
37091;SDS011;23005;51.998;4.502;2022-10-31T01:57:10;9.50;;;5.22;;
37091;SDS011;23005;51.998;4.502;2022-10-31T01:59:02;11.30;;;6.32;;
37091;SDS011;23005;51.998;4.502;2022-10-31T02:00:55;9.20;;;5.45;;
37091;SDS011;23005;51.998;4.502;2022-10-31T02:02:53;10.73;;;5.47;;
37091;SDS011;23005;51.998;4.502;2022-10-31T02:04:45;12.70;;;5.97;;
37091;SDS011;23005;51.998;4.502;2022-10-31T02:08:28;9.43;;;5.30;;
37091;SDS011;23005;51.998;4.502;2022-10-31T02:10:19;12.15;;;5.45;;
37091;SDS011;23005;51.998;4.502;2022-10-31T02:12:11;10.88;;;6.05;;
37091;SDS011;23005;51.998;4.502;2022-10-31T02:14:03;9.60;;;5.63;;
37091;SDS011;23005;51.998;4.502;2022-10-31T02:15:55;9.15;;;5.65;;
37091;SDS011;23005;51.998;4.502;2022-10-31T02:17:46;12.30;;;6.20;;
37091;SDS011;23005;51.998;4.502;2022-10-31T02:19:39;10.90;;;5.80;;
37091;SDS011;23005;51.998;4.502;2022-10-31T02:21:40;13.10;;;6.03;;
37091;SDS011;23005;51.998;4.502;2022-10-31T02:23:46;7.53;;;5.20;;
37091;SDS011;23005;51.998;4.502;2022-10-31T02:26:17;10.65;;;5.90;;
37091;SDS011;23005;51.998;4.502;2022-10-31T02:28:34;12.70;;;6.05;;
37091;SDS011;23005;51.998;4.502;2022-10-31T02:30:51;9.27;;;6.65;;
37091;SDS011;23005;51.998;4.502;2022-10-31T02:32:47;10.05;;;6.13;;
37091;SDS011;23005;51.998;4.502;2022-10-31T02:34:43;11.93;;;6.70;;
37091;SDS011;23005;51.998;4.502;2022-10-31T02:36:39;11.45;;;6.53;;
37091;SDS011;23005;51.998;4.502;2022-10-31T02:38:36;12.68;;;6.50;;
37091;SDS011;23005;51.998;4.502;2022-10-31T02:40:33;12.25;;;6.55;;
37091;SDS011;23005;51.998;4.502;2022-10-31T02:42:28;13.32;;;7.28;;
37091;SDS011;23005;51.998;4.502;2022-10-31T02:44:22;12.80;;;7.00;;
37091;SDS011;23005;51.998;4.502;2022-10-31T02:46:22;12.25;;;7.28;;
37091;SDS011;23005;51.998;4.502;2022-10-31T02:48:16;12.30;;;6.43;;
37091;SDS011;23005;51.998;4.502;2022-10-31T02:50:11;12.30;;;8.15;;
37091;SDS011;23005;51.998;4.502;2022-10-31T02:52:12;13.90;;;7.57;;
37091;SDS011;23005;51.998;4.502;2022-10-31T02:54:04;11.30;;;6.68;;
37091;SDS011;23005;51.998;4.502;2022-10-31T02:55:56;10.50;;;6.32;;
37091;SDS011;23005;51.998;4.502;2022-10-31T02:57:48;12.43;;;7.15;;
37091;SDS011;23005;51.998;4.502;2022-10-31T02:59:39;9.70;;;6.55;;
37091;SDS011;23005;51.998;4.502;2022-10-31T03:01:50;16.02;;;7.95;;
37091;SDS011;23005;51.998;4.502;2022-10-31T03:03:56;15.48;;;8.85;;
37091;SDS011;23005;51.998;4.502;2022-10-31T03:05:54;21.27;;;9.88;;
37091;SDS011;23005;51.998;4.502;2022-10-31T03:07:49;15.88;;;8.80;;
37091;SDS011;23005;51.998;4.502;2022-10-31T03:09:45;16.10;;;9.48;;
37091;SDS011;23005;51.998;4.502;2022-10-31T03:11:42;13.77;;;8.73;;
37091;SDS011;23005;51.998;4.502;2022-10-31T03:13:36;15.23;;;9.10;;
37091;SDS011;23005;51.998;4.502;2022-10-31T03:15:30;13.77;;;8.43;;
37091;SDS011;23005;51.998;4.502;2022-10-31T03:17:25;15.05;;;8.35;;
37091;SDS011;23005;51.998;4.502;2022-10-31T03:19:19;17.10;;;10.50;;
37091;SDS011;23005;51.998;4.502;2022-10-31T03:21:13;12.18;;;8.57;;
37091;SDS011;23005;51.998;4.502;2022-10-31T03:23:07;15.40;;;9.48;;
37091;SDS011;23005;51.998;4.502;2022-10-31T03:25:02;15.10;;;9.88;;
37091;SDS011;23005;51.998;4.502;2022-10-31T03:26:54;17.30;;;10.10;;
37091;SDS011;23005;51.998;4.502;2022-10-31T03:28:48;16.80;;;10.80;;
37091;SDS011;23005;51.998;4.502;2022-10-31T03:30:43;21.38;;;10.27;;
37091;SDS011;23005;51.998;4.502;2022-10-31T03:32:36;18.13;;;11.80;;
37091;SDS011;23005;51.998;4.502;2022-10-31T03:34:29;18.63;;;12.27;;
37091;SDS011;23005;51.998;4.502;2022-10-31T03:36:20;18.23;;;12.05;;
37091;SDS011;23005;51.998;4.502;2022-10-31T03:38:10;20.92;;;12.70;;
37091;SDS011;23005;51.998;4.502;2022-10-31T03:40:02;16.48;;;10.63;;
37091;SDS011;23005;51.998;4.502;2022-10-31T03:41:57;16.45;;;10.98;;
37091;SDS011;23005;51.998;4.502;2022-10-31T03:43:52;18.55;;;10.60;;
37091;SDS011;23005;51.998;4.502;2022-10-31T03:45:45;18.45;;;11.32;;
37091;SDS011;23005;51.998;4.502;2022-10-31T03:47:38;18.03;;;12.47;;
37091;SDS011;23005;51.998;4.502;2022-10-31T03:49:28;26.85;;;14.90;;
37091;SDS011;23005;51.998;4.502;2022-10-31T03:51:21;24.63;;;15.68;;
37091;SDS011;23005;51.998;4.502;2022-10-31T03:53:14;27.75;;;16.95;;
37091;SDS011;23005;51.998;4.502;2022-10-31T03:55:09;23.67;;;16.25;;
37091;SDS011;23005;51.998;4.502;2022-10-31T03:57:03;27.45;;;18.17;;
37091;SDS011;23005;51.998;4.502;2022-10-31T03:58:58;24.55;;;17.45;;
37091;SDS011;23005;51.998;4.502;2022-10-31T04:00:50;25.92;;;17.60;;
37091;SDS011;23005;51.998;4.502;2022-10-31T04:04:35;28.38;;;18.55;;
37091;SDS011;23005;51.998;4.502;2022-10-31T04:06:27;28.95;;;18.13;;
37091;SDS011;23005;51.998;4.502;2022-10-31T04:08:18;29.63;;;18.20;;
37091;SDS011;23005;51.998;4.502;2022-10-31T04:10:11;28.38;;;18.73;;
37091;SDS011;23005;51.998;4.502;2022-10-31T04:12:04;24.35;;;16.85;;
37091;SDS011;23005;51.998;4.502;2022-10-31T04:13:56;31.33;;;19.75;;
37091;SDS011;23005;51.998;4.502;2022-10-31T04:15:47;28.27;;;18.23;;
37091;SDS011;23005;51.998;4.502;2022-10-31T04:17:39;26.13;;;17.65;;
37091;SDS011;23005;51.998;4.502;2022-10-31T04:21:26;26.98;;;18.77;;
37091;SDS011;23005;51.998;4.502;2022-10-31T04:23:18;28.83;;;19.38;;
37091;SDS011;23005;51.998;4.502;2022-10-31T04:25:10;29.75;;;19.55;;
37091;SDS011;23005;51.998;4.502;2022-10-31T04:27:00;31.23;;;18.63;;
37091;SDS011;23005;51.998;4.502;2022-10-31T04:28:51;29.35;;;17.48;;
37091;SDS011;23005;51.998;4.502;2022-10-31T04:30:42;25.52;;;17.48;;
37091;SDS011;23005;51.998;4.502;2022-10-31T04:32:32;26.58;;;16.17;;
37091;SDS011;23005;51.998;4.502;2022-10-31T04:34:23;28.05;;;17.52;;
37091;SDS011;23005;51.998;4.502;2022-10-31T04:36:15;29.42;;;18.42;;
37091;SDS011;23005;51.998;4.502;2022-10-31T04:38:05;30.33;;;18.70;;
37091;SDS011;23005;51.998;4.502;2022-10-31T04:39:56;26.17;;;17.80;;
37091;SDS011;23005;51.998;4.502;2022-10-31T04:41:46;28.45;;;18.88;;
37091;SDS011;23005;51.998;4.502;2022-10-31T04:43:37;27.15;;;18.13;;
37091;SDS011;23005;51.998;4.502;2022-10-31T04:45:27;30.30;;;20.00;;
37091;SDS011;23005;51.998;4.502;2022-10-31T04:47:17;32.55;;;20.75;;
37091;SDS011;23005;51.998;4.502;2022-10-31T04:49:08;29.63;;;19.25;;
37091;SDS011;23005;51.998;4.502;2022-10-31T04:50:58;28.23;;;18.13;;
37091;SDS011;23005;51.998;4.502;2022-10-31T04:52:50;31.30;;;18.83;;
37091;SDS011;23005;51.998;4.502;2022-10-31T04:54:40;26.98;;;19.33;;
37091;SDS011;23005;51.998;4.502;2022-10-31T04:56:31;30.33;;;17.48;;
37091;SDS011;23005;51.998;4.502;2022-10-31T04:58:22;27.45;;;18.13;;
37091;SDS011;23005;51.998;4.502;2022-10-31T05:00:13;27.35;;;16.33;;
37091;SDS011;23005;51.998;4.502;2022-10-31T05:02:05;27.95;;;18.02;;
37091;SDS011;23005;51.998;4.502;2022-10-31T05:03:55;31.83;;;20.40;;
37091;SDS011;23005;51.998;4.502;2022-10-31T05:05:46;34.50;;;20.08;;
37091;SDS011;23005;51.998;4.502;2022-10-31T05:07:38;34.53;;;21.63;;
37091;SDS011;23005;51.998;4.502;2022-10-31T05:09:30;32.13;;;19.85;;
37091;SDS011;23005;51.998;4.502;2022-10-31T05:11:20;25.48;;;18.33;;
37091;SDS011;23005;51.998;4.502;2022-10-31T05:13:11;34.28;;;22.88;;
37091;SDS011;23005;51.998;4.502;2022-10-31T05:15:01;29.25;;;20.05;;
37091;SDS011;23005;51.998;4.502;2022-10-31T05:16:52;31.58;;;20.08;;
37091;SDS011;23005;51.998;4.502;2022-10-31T05:18:42;32.40;;;19.75;;
37091;SDS011;23005;51.998;4.502;2022-10-31T05:20:33;35.40;;;21.80;;
37091;SDS011;23005;51.998;4.502;2022-10-31T05:22:23;39.13;;;22.33;;
37091;SDS011;23005;51.998;4.502;2022-10-31T05:24:13;30.98;;;19.73;;
37091;SDS011;23005;51.998;4.502;2022-10-31T05:26:05;30.92;;;19.25;;
37091;SDS011;23005;51.998;4.502;2022-10-31T05:27:56;28.85;;;19.20;;
37091;SDS011;23005;51.998;4.502;2022-10-31T05:29:47;37.87;;;22.87;;
37091;SDS011;23005;51.998;4.502;2022-10-31T05:31:37;28.13;;;19.70;;
37091;SDS011;23005;51.998;4.502;2022-10-31T05:33:28;33.05;;;19.02;;
37091;SDS011;23005;51.998;4.502;2022-10-31T05:35:19;34.28;;;18.80;;
37091;SDS011;23005;51.998;4.502;2022-10-31T05:37:10;30.85;;;19.58;;
37091;SDS011;23005;51.998;4.502;2022-10-31T05:39:01;28.95;;;18.63;;
37091;SDS011;23005;51.998;4.502;2022-10-31T05:40:53;36.95;;;19.88;;
37091;SDS011;23005;51.998;4.502;2022-10-31T05:42:47;29.08;;;18.33;;
37091;SDS011;23005;51.998;4.502;2022-10-31T05:44:40;28.10;;;19.40;;
37091;SDS011;23005;51.998;4.502;2022-10-31T05:46:31;29.05;;;19.40;;
37091;SDS011;23005;51.998;4.502;2022-10-31T05:48:27;25.83;;;18.42;;
37091;SDS011;23005;51.998;4.502;2022-10-31T05:50:17;32.67;;;21.77;;
37091;SDS011;23005;51.998;4.502;2022-10-31T05:52:07;30.35;;;19.33;;
37091;SDS011;23005;51.998;4.502;2022-10-31T05:53:57;28.63;;;18.23;;
37091;SDS011;23005;51.998;4.502;2022-10-31T05:55:48;27.50;;;18.73;;
37091;SDS011;23005;51.998;4.502;2022-10-31T05:57:38;36.05;;;20.25;;
37091;SDS011;23005;51.998;4.502;2022-10-31T05:59:30;42.10;;;23.90;;
37091;SDS011;23005;51.998;4.502;2022-10-31T06:01:20;38.50;;;23.67;;
37091;SDS011;23005;51.998;4.502;2022-10-31T06:03:11;38.13;;;24.08;;
37091;SDS011;23005;51.998;4.502;2022-10-31T06:05:02;37.65;;;22.65;;
37091;SDS011;23005;51.998;4.502;2022-10-31T06:06:52;45.05;;;25.58;;
37091;SDS011;23005;51.998;4.502;2022-10-31T06:08:43;46.00;;;24.48;;
37091;SDS011;23005;51.998;4.502;2022-10-31T06:10:33;40.33;;;23.73;;
37091;SDS011;23005;51.998;4.502;2022-10-31T06:12:23;42.22;;;22.80;;
37091;SDS011;23005;51.998;4.502;2022-10-31T06:14:14;35.45;;;21.75;;
37091;SDS011;23005;51.998;4.502;2022-10-31T06:16:06;40.35;;;23.98;;
37091;SDS011;23005;51.998;4.502;2022-10-31T06:17:57;32.42;;;20.00;;
37091;SDS011;23005;51.998;4.502;2022-10-31T06:21:44;37.45;;;21.60;;
37091;SDS011;23005;51.998;4.502;2022-10-31T06:23:35;33.40;;;20.23;;
37091;SDS011;23005;51.998;4.502;2022-10-31T06:25:25;31.98;;;19.02;;
37091;SDS011;23005;51.998;4.502;2022-10-31T06:27:16;37.30;;;21.55;;
37091;SDS011;23005;51.998;4.502;2022-10-31T06:29:06;45.13;;;25.05;;
37091;SDS011;23005;51.998;4.502;2022-10-31T06:30:57;38.50;;;20.63;;
37091;SDS011;23005;51.998;4.502;2022-10-31T06:32:48;31.10;;;20.92;;
37091;SDS011;23005;51.998;4.502;2022-10-31T06:34:39;35.38;;;20.70;;
37091;SDS011;23005;51.998;4.502;2022-10-31T06:36:30;34.87;;;20.90;;
37091;SDS011;23005;51.998;4.502;2022-10-31T06:38:21;36.35;;;20.90;;
37091;SDS011;23005;51.998;4.502;2022-10-31T06:40:12;46.80;;;23.70;;
37091;SDS011;23005;51.998;4.502;2022-10-31T06:42:02;36.53;;;21.05;;
37091;SDS011;23005;51.998;4.502;2022-10-31T06:43:53;32.40;;;20.20;;
37091;SDS011;23005;51.998;4.502;2022-10-31T06:45:44;30.75;;;19.75;;
37091;SDS011;23005;51.998;4.502;2022-10-31T06:47:34;26.98;;;17.73;;
37091;SDS011;23005;51.998;4.502;2022-10-31T06:49:46;36.05;;;21.05;;
37091;SDS011;23005;51.998;4.502;2022-10-31T06:51:37;39.95;;;18.20;;
37091;SDS011;23005;51.998;4.502;2022-10-31T06:53:27;25.98;;;17.25;;
37091;SDS011;23005;51.998;4.502;2022-10-31T06:55:18;39.58;;;19.88;;
37091;SDS011;23005;51.998;4.502;2022-10-31T06:57:09;30.83;;;20.02;;
37091;SDS011;23005;51.998;4.502;2022-10-31T06:58:59;33.28;;;19.58;;
37091;SDS011;23005;51.998;4.502;2022-10-31T07:00:49;37.15;;;21.25;;
37091;SDS011;23005;51.998;4.502;2022-10-31T07:02:40;37.50;;;21.88;;
37091;SDS011;23005;51.998;4.502;2022-10-31T07:04:31;36.13;;;21.02;;
37091;SDS011;23005;51.998;4.502;2022-10-31T07:06:22;39.17;;;20.38;;
37091;SDS011;23005;51.998;4.502;2022-10-31T07:08:13;28.67;;;18.67;;
37091;SDS011;23005;51.998;4.502;2022-10-31T07:10:04;32.20;;;19.42;;
37091;SDS011;23005;51.998;4.502;2022-10-31T07:11:55;33.20;;;18.83;;
37091;SDS011;23005;51.998;4.502;2022-10-31T07:13:45;29.00;;;18.85;;
37091;SDS011;23005;51.998;4.502;2022-10-31T07:15:36;37.05;;;22.58;;
37091;SDS011;23005;51.998;4.502;2022-10-31T07:17:27;29.48;;;17.63;;
37091;SDS011;23005;51.998;4.502;2022-10-31T07:19:19;30.88;;;19.48;;
37091;SDS011;23005;51.998;4.502;2022-10-31T07:21:09;33.05;;;20.00;;
37091;SDS011;23005;51.998;4.502;2022-10-31T07:23:01;36.03;;;21.40;;
37091;SDS011;23005;51.998;4.502;2022-10-31T07:24:52;39.75;;;20.85;;
37091;SDS011;23005;51.998;4.502;2022-10-31T07:26:42;33.58;;;20.15;;
37091;SDS011;23005;51.998;4.502;2022-10-31T07:28:34;33.97;;;20.10;;
37091;SDS011;23005;51.998;4.502;2022-10-31T07:30:25;41.97;;;24.65;;
37091;SDS011;23005;51.998;4.502;2022-10-31T07:32:15;39.20;;;24.20;;
37091;SDS011;23005;51.998;4.502;2022-10-31T07:34:05;48.38;;;28.45;;
37091;SDS011;23005;51.998;4.502;2022-10-31T07:35:56;44.05;;;26.30;;
37091;SDS011;23005;51.998;4.502;2022-10-31T07:37:47;45.58;;;27.08;;
37091;SDS011;23005;51.998;4.502;2022-10-31T07:39:39;51.00;;;26.30;;
37091;SDS011;23005;51.998;4.502;2022-10-31T07:41:30;45.88;;;26.40;;
37091;SDS011;23005;51.998;4.502;2022-10-31T07:43:21;47.13;;;25.77;;
37091;SDS011;23005;51.998;4.502;2022-10-31T07:45:11;44.13;;;24.80;;
37091;SDS011;23005;51.998;4.502;2022-10-31T07:47:03;45.35;;;25.33;;
37091;SDS011;23005;51.998;4.502;2022-10-31T07:48:53;44.60;;;25.55;;
37091;SDS011;23005;51.998;4.502;2022-10-31T07:50:43;45.08;;;28.25;;
37091;SDS011;23005;51.998;4.502;2022-10-31T07:52:34;50.10;;;29.05;;
37091;SDS011;23005;51.998;4.502;2022-10-31T07:54:25;54.33;;;29.25;;
37091;SDS011;23005;51.998;4.502;2022-10-31T07:56:16;50.22;;;30.58;;
37091;SDS011;23005;51.998;4.502;2022-10-31T07:58:07;48.45;;;29.33;;
37091;SDS011;23005;51.998;4.502;2022-10-31T07:59:59;49.85;;;30.02;;
37091;SDS011;23005;51.998;4.502;2022-10-31T08:01:49;58.30;;;34.30;;
37091;SDS011;23005;51.998;4.502;2022-10-31T08:03:39;52.17;;;32.42;;
37091;SDS011;23005;51.998;4.502;2022-10-31T08:05:30;57.42;;;32.28;;
37091;SDS011;23005;51.998;4.502;2022-10-31T08:07:21;57.55;;;34.38;;
37091;SDS011;23005;51.998;4.502;2022-10-31T08:09:12;72.82;;;41.85;;
37091;SDS011;23005;51.998;4.502;2022-10-31T08:11:02;70.30;;;38.92;;
37091;SDS011;23005;51.998;4.502;2022-10-31T08:12:58;69.75;;;39.25;;
37091;SDS011;23005;51.998;4.502;2022-10-31T08:14:49;54.05;;;33.13;;
37091;SDS011;23005;51.998;4.502;2022-10-31T08:16:39;63.50;;;34.53;;
37091;SDS011;23005;51.998;4.502;2022-10-31T08:18:30;59.67;;;33.95;;
37091;SDS011;23005;51.998;4.502;2022-10-31T08:20:20;55.60;;;32.67;;
37091;SDS011;23005;51.998;4.502;2022-10-31T08:22:11;61.55;;;34.38;;
37091;SDS011;23005;51.998;4.502;2022-10-31T08:24:01;52.10;;;32.88;;
37091;SDS011;23005;51.998;4.502;2022-10-31T08:25:52;60.67;;;34.13;;
37091;SDS011;23005;51.998;4.502;2022-10-31T08:27:42;65.60;;;37.75;;
37091;SDS011;23005;51.998;4.502;2022-10-31T08:29:35;67.65;;;38.42;;
37091;SDS011;23005;51.998;4.502;2022-10-31T08:33:22;61.17;;;36.72;;
37091;SDS011;23005;51.998;4.502;2022-10-31T08:35:13;64.65;;;36.85;;
37091;SDS011;23005;51.998;4.502;2022-10-31T08:37:04;62.85;;;34.75;;
37091;SDS011;23005;51.998;4.502;2022-10-31T08:38:54;62.63;;;36.50;;
37091;SDS011;23005;51.998;4.502;2022-10-31T08:40:50;65.85;;;36.85;;
37091;SDS011;23005;51.998;4.502;2022-10-31T08:42:41;56.50;;;33.20;;
37091;SDS011;23005;51.998;4.502;2022-10-31T08:44:31;61.70;;;34.65;;
37091;SDS011;23005;51.998;4.502;2022-10-31T08:46:23;52.58;;;33.38;;
37091;SDS011;23005;51.998;4.502;2022-10-31T08:48:14;58.28;;;34.45;;
37091;SDS011;23005;51.998;4.502;2022-10-31T08:50:05;58.90;;;34.80;;
37091;SDS011;23005;51.998;4.502;2022-10-31T08:51:56;55.05;;;33.92;;
37091;SDS011;23005;51.998;4.502;2022-10-31T08:53:46;47.58;;;30.48;;
37091;SDS011;23005;51.998;4.502;2022-10-31T08:55:37;57.35;;;32.38;;
37091;SDS011;23005;51.998;4.502;2022-10-31T08:57:28;53.05;;;32.50;;
37091;SDS011;23005;51.998;4.502;2022-10-31T08:59:19;51.28;;;31.73;;
37091;SDS011;23005;51.998;4.502;2022-10-31T09:01:09;54.63;;;32.92;;
37091;SDS011;23005;51.998;4.502;2022-10-31T09:03:03;57.85;;;32.17;;
37091;SDS011;23005;51.998;4.502;2022-10-31T09:04:54;48.67;;;30.17;;
37091;SDS011;23005;51.998;4.502;2022-10-31T09:06:44;57.55;;;30.30;;
37091;SDS011;23005;51.998;4.502;2022-10-31T09:08:54;50.97;;;31.80;;
37091;SDS011;23005;51.998;4.502;2022-10-31T09:10:45;51.53;;;29.10;;
37091;SDS011;23005;51.998;4.502;2022-10-31T09:12:36;54.08;;;32.55;;
37091;SDS011;23005;51.998;4.502;2022-10-31T09:14:26;49.55;;;28.85;;
37091;SDS011;23005;51.998;4.502;2022-10-31T09:16:17;45.65;;;27.58;;
37091;SDS011;23005;51.998;4.502;2022-10-31T09:18:08;48.08;;;26.85;;
37091;SDS011;23005;51.998;4.502;2022-10-31T09:19:59;49.20;;;28.50;;
37091;SDS011;23005;51.998;4.502;2022-10-31T09:21:51;42.55;;;27.05;;
37091;SDS011;23005;51.998;4.502;2022-10-31T09:23:43;51.28;;;28.02;;
37091;SDS011;23005;51.998;4.502;2022-10-31T09:25:33;39.97;;;24.80;;
37091;SDS011;23005;51.998;4.502;2022-10-31T09:27:24;38.88;;;24.65;;
37091;SDS011;23005;51.998;4.502;2022-10-31T09:29:14;47.53;;;26.35;;
37091;SDS011;23005;51.998;4.502;2022-10-31T09:31:05;45.10;;;26.10;;
37091;SDS011;23005;51.998;4.502;2022-10-31T09:32:56;36.15;;;23.75;;
37091;SDS011;23005;51.998;4.502;2022-10-31T09:34:47;47.28;;;24.95;;
37091;SDS011;23005;51.998;4.502;2022-10-31T09:36:38;43.67;;;23.45;;
37091;SDS011;23005;51.998;4.502;2022-10-31T09:38:28;39.10;;;24.52;;
37091;SDS011;23005;51.998;4.502;2022-10-31T09:40:18;39.92;;;24.30;;
37091;SDS011;23005;51.998;4.502;2022-10-31T09:42:18;43.42;;;23.23;;
37091;SDS011;23005;51.998;4.502;2022-10-31T09:44:33;46.28;;;25.30;;
37091;SDS011;23005;51.998;4.502;2022-10-31T09:46:32;44.00;;;25.20;;
37091;SDS011;23005;51.998;4.502;2022-10-31T09:50:51;35.53;;;21.23;;
37091;SDS011;23005;51.998;4.502;2022-10-31T09:52:45;42.75;;;22.75;;
37091;SDS011;23005;51.998;4.502;2022-10-31T09:54:43;36.83;;;22.77;;
37091;SDS011;23005;51.998;4.502;2022-10-31T09:56:35;35.47;;;21.23;;
37091;SDS011;23005;51.998;4.502;2022-10-31T09:58:27;37.30;;;21.10;;
37091;SDS011;23005;51.998;4.502;2022-10-31T10:00:20;40.15;;;22.48;;
37091;SDS011;23005;51.998;4.502;2022-10-31T10:02:13;45.40;;;24.75;;
37091;SDS011;23005;51.998;4.502;2022-10-31T10:04:10;38.28;;;22.98;;
37091;SDS011;23005;51.998;4.502;2022-10-31T10:06:23;38.45;;;22.45;;
37091;SDS011;23005;51.998;4.502;2022-10-31T10:08:16;38.00;;;21.70;;
37091;SDS011;23005;51.998;4.502;2022-10-31T10:10:13;39.03;;;22.27;;
37091;SDS011;23005;51.998;4.502;2022-10-31T10:12:07;43.10;;;23.35;;
37091;SDS011;23005;51.998;4.502;2022-10-31T10:14:10;47.08;;;24.10;;
37091;SDS011;23005;51.998;4.502;2022-10-31T10:16:12;39.15;;;22.63;;
37091;SDS011;23005;51.998;4.502;2022-10-31T10:18:11;39.38;;;23.15;;
37091;SDS011;23005;51.998;4.502;2022-10-31T10:20:12;36.17;;;21.20;;
37091;SDS011;23005;51.998;4.502;2022-10-31T10:22:12;40.88;;;22.45;;
37091;SDS011;23005;51.998;4.502;2022-10-31T10:24:10;41.35;;;22.30;;
37091;SDS011;23005;51.998;4.502;2022-10-31T10:26:10;45.47;;;21.93;;
37091;SDS011;23005;51.998;4.502;2022-10-31T10:28:08;38.53;;;21.75;;
37091;SDS011;23005;51.998;4.502;2022-10-31T10:30:13;40.95;;;21.00;;
37091;SDS011;23005;51.998;4.502;2022-10-31T10:32:05;41.75;;;21.67;;
37091;SDS011;23005;51.998;4.502;2022-10-31T10:34:01;35.30;;;19.60;;
37091;SDS011;23005;51.998;4.502;2022-10-31T10:35:57;41.35;;;21.83;;
37091;SDS011;23005;51.998;4.502;2022-10-31T10:37:51;40.80;;;22.30;;
37091;SDS011;23005;51.998;4.502;2022-10-31T10:39:46;43.30;;;24.67;;
37091;SDS011;23005;51.998;4.502;2022-10-31T10:41:40;47.00;;;23.85;;
37091;SDS011;23005;51.998;4.502;2022-10-31T10:43:33;40.72;;;23.65;;
37091;SDS011;23005;51.998;4.502;2022-10-31T10:47:15;44.22;;;24.65;;
37091;SDS011;23005;51.998;4.502;2022-10-31T10:49:12;37.80;;;22.50;;
37091;SDS011;23005;51.998;4.502;2022-10-31T10:51:10;45.70;;;22.48;;
37091;SDS011;23005;51.998;4.502;2022-10-31T10:53:36;44.13;;;22.15;;
37091;SDS011;23005;51.998;4.502;2022-10-31T10:55:35;41.33;;;25.08;;
37091;SDS011;23005;51.998;4.502;2022-10-31T10:57:32;48.80;;;25.70;;
37091;SDS011;23005;51.998;4.502;2022-10-31T10:59:30;49.33;;;26.88;;
37091;SDS011;23005;51.998;4.502;2022-10-31T11:01:21;43.08;;;24.52;;
37091;SDS011;23005;51.998;4.502;2022-10-31T11:03:12;55.78;;;27.85;;
37091;SDS011;23005;51.998;4.502;2022-10-31T11:05:03;46.25;;;26.15;;
37091;SDS011;23005;51.998;4.502;2022-10-31T11:07:06;48.85;;;26.08;;
37091;SDS011;23005;51.998;4.502;2022-10-31T11:08:59;50.20;;;23.95;;
37091;SDS011;23005;51.998;4.502;2022-10-31T11:10:59;41.42;;;22.45;;
37091;SDS011;23005;51.998;4.502;2022-10-31T11:15:17;37.00;;;20.98;;
37091;SDS011;23005;51.998;4.502;2022-10-31T11:17:09;38.67;;;20.67;;
37091;SDS011;23005;51.998;4.502;2022-10-31T11:19:17;46.80;;;21.50;;
37091;SDS011;23005;51.998;4.502;2022-10-31T11:21:19;41.72;;;21.83;;